createdAt,value
2022-12-14T00:01:28.110Z,99977.13
2022-12-14T00:03:57.061Z,99964.63
2022-12-14T00:06:27.773Z,99967.19
2022-12-14T00:08:57.660Z,99973.69
2022-12-14T00:11:25.517Z,99956.06
2022-12-14T00:13:53.965Z,99970.59
2022-12-14T00:16:22.392Z,99964.59
2022-12-14T00:18:50.325Z,99955.16
2022-12-14T00:21:17.847Z,99950.00
2022-12-14T00:23:47.049Z,99957.50
2022-12-14T00:26:15.172Z,99953.78
2022-12-14T00:28:42.968Z,99953.94
2022-12-14T00:31:10.470Z,99945.38
2022-12-14T00:33:38.495Z,99946.88
2022-12-14T00:36:08.380Z,99929.97
2022-12-14T00:38:36.504Z,99935.13
2022-12-14T00:41:05.952Z,99939.22
2022-12-14T00:43:33.724Z,99935.78
2022-12-14T00:46:01.483Z,99935.25
2022-12-14T00:48:29.666Z,99930.06
2022-12-14T00:50:57.675Z,99929.13
2022-12-14T00:53:25.537Z,99927.53
2022-12-14T00:55:53.141Z,99924.94
2022-12-14T00:58:22.420Z,99911.91
2022-12-14T01:00:58.838Z,99916.72
2022-12-14T01:03:26.792Z,99913.28
2022-12-14T01:05:54.928Z,99911.41
2022-12-14T01:08:23.045Z,99906.34
2022-12-14T01:10:50.565Z,99905.38
2022-12-14T01:13:18.189Z,99895.50
2022-12-14T01:15:47.192Z,99904.41
2022-12-14T01:18:14.834Z,99890.03
2022-12-14T01:20:42.352Z,99890.81
2022-12-14T01:23:09.802Z,99893.56
2022-12-14T01:25:37.309Z,99890.88
2022-12-14T01:28:05.306Z,99879.84
2022-12-14T01:30:32.996Z,99887.31
2022-12-14T01:33:02.082Z,99877.41
2022-12-14T01:35:29.820Z,99861.91
2022-12-14T01:37:57.316Z,99868.63
2022-12-14T01:40:24.846Z,99873.63
2022-12-14T01:42:52.350Z,99865.16
2022-12-14T01:45:21.583Z,99870.28
2022-12-14T01:47:50.566Z,99862.59
2022-12-14T01:50:21.473Z,99867.81
2022-12-14T01:52:49.259Z,99856.63
2022-12-14T01:55:20.195Z,99861.78
2022-12-14T01:57:50.819Z,99860.91
2022-12-14T02:00:18.723Z,99853.31
2022-12-14T02:02:50.934Z,99853.41
2022-12-14T02:05:21.318Z,99849.84
2022-12-14T02:07:49.890Z,99842.22
2022-12-14T02:10:17.759Z,99839.81
2022-12-14T02:12:47.156Z,99836.34
2022-12-14T02:15:14.617Z,99841.47
2022-12-14T02:17:42.825Z,99832.06
2022-12-14T02:20:10.706Z,99827.84
2022-12-14T02:22:46.304Z,99835.38
2022-12-14T02:25:21.503Z,99822.69
2022-12-14T02:28:06.276Z,99817.53
2022-12-14T02:30:37.651Z,99814.28
2022-12-14T02:33:27.142Z,99818.53
2022-12-14T02:35:56.484Z,99819.31
2022-12-14T02:38:33.772Z,99828.63
2022-12-14T02:41:02.943Z,99817.56
2022-12-14T02:43:31.303Z,99811.84
2022-12-14T02:46:01.437Z,99810.97
2022-12-14T02:48:34.154Z,99809.31
2022-12-14T02:51:09.547Z,99810.22
2022-12-14T02:53:40.127Z,99811.09
2022-12-14T02:56:09.953Z,99802.56
2022-12-14T02:58:40.254Z,99806.09
2022-12-14T03:01:13.106Z,99785.13
2022-12-14T03:03:40.687Z,99793.53
2022-12-14T03:06:14.758Z,99793.16
2022-12-14T03:08:42.875Z,99769.50
2022-12-14T03:11:10.860Z,99778.81
2022-12-14T03:13:38.789Z,99777.97
2022-12-14T03:16:07.780Z,99773.78
2022-12-14T03:18:39.122Z,99767.81
2022-12-14T03:21:08.729Z,99771.28
2022-12-14T03:23:39.499Z,99763.75
2022-12-14T03:26:12.244Z,99771.22
2022-12-14T03:28:45.671Z,99772.81
2022-12-14T03:31:16.592Z,99771.81
2022-12-14T03:33:46.252Z,99770.81
2022-12-14T03:36:17.504Z,99760.72
2022-12-14T03:38:45.751Z,99764.88
2022-12-14T03:41:15.040Z,99750.84
2022-12-14T03:43:50.050Z,99753.97
2022-12-14T03:46:19.249Z,99763.13
2022-12-14T03:48:48.693Z,99753.66
2022-12-14T03:51:19.363Z,99769.53
2022-12-14T03:53:47.805Z,99756.00
2022-12-14T03:56:20.512Z,99734.22
2022-12-14T03:58:57.255Z,99730.84
2022-12-14T04:01:31.880Z,99728.53
2022-12-14T04:04:05.362Z,99737.00
2022-12-14T04:06:40.566Z,99742.09
2022-12-14T04:09:18.975Z,99742.94
2022-12-14T04:12:09.632Z,99735.09
2022-12-14T04:14:55.461Z,99721.75
2022-12-14T04:17:41.828Z,99718.22
2022-12-14T04:20:11.340Z,99727.47
2022-12-14T04:22:39.468Z,99718.03
2022-12-14T04:25:25.428Z,99710.56
2022-12-14T04:27:53.184Z,99717.13
2022-12-14T04:30:20.151Z,99717.91
2022-12-14T04:32:50.336Z,99713.19
2022-12-14T04:35:21.592Z,99707.00
2022-12-14T04:37:49.734Z,99710.50
2022-12-14T04:40:18.159Z,99700.16
2022-12-14T04:42:46.949Z,99705.19
2022-12-14T04:45:15.616Z,99692.56
2022-12-14T04:47:43.497Z,99697.94
2022-12-14T04:50:11.363Z,99702.03
2022-12-14T04:52:41.354Z,99691.09
2022-12-14T04:55:10.240Z,99685.22
2022-12-14T04:57:38.602Z,99677.78
2022-12-14T05:00:06.753Z,99688.06
2022-12-14T05:02:36.582Z,99690.31
2022-12-14T05:05:06.311Z,99693.84
2022-12-14T05:07:35.928Z,99682.25
2022-12-14T05:10:06.763Z,99685.50
2022-12-14T05:12:40.734Z,99673.69
2022-12-14T05:15:11.661Z,99676.19
2022-12-14T05:17:39.560Z,99676.56
2022-12-14T05:20:07.718Z,99674.81
2022-12-14T05:22:35.245Z,99684.72
2022-12-14T05:25:02.781Z,99676.34
2022-12-14T05:27:31.838Z,99672.84
2022-12-14T05:29:59.377Z,99669.63
2022-12-14T05:32:27.155Z,99665.53
2022-12-14T05:34:54.615Z,99659.66
2022-12-14T05:37:22.127Z,99669.81
2022-12-14T05:39:49.857Z,99681.03
2022-12-14T05:42:17.601Z,99668.91
2022-12-14T05:44:46.604Z,99667.19
2022-12-14T05:47:14.513Z,99672.28
2022-12-14T05:49:42.235Z,99660.66
2022-12-14T05:52:10.017Z,99648.88
2022-12-14T05:54:37.680Z,99649.63
2022-12-14T05:57:06.800Z,99656.44
2022-12-14T05:59:34.440Z,99660.59
2022-12-14T06:02:03.501Z,99662.09
2022-12-14T06:04:31.139Z,99639.50
2022-12-14T06:06:58.621Z,99641.13
2022-12-14T06:09:26.212Z,99640.38
2022-12-14T06:11:53.676Z,99647.91
2022-12-14T06:14:21.284Z,99648.00
2022-12-14T06:16:48.777Z,99637.97
2022-12-14T06:19:17.619Z,99640.25
2022-12-14T06:21:45.435Z,99634.38
2022-12-14T06:24:13.184Z,99624.13
2022-12-14T06:26:41.866Z,99635.13
2022-12-14T06:29:14.707Z,99626.66
2022-12-14T06:31:42.476Z,99629.22
2022-12-14T06:34:10.405Z,99627.50
2022-12-14T06:36:40.685Z,99629.16
2022-12-14T06:39:12.245Z,99624.97
2022-12-14T06:41:40.188Z,99624.88
2022-12-14T06:44:08.717Z,99630.97
2022-12-14T06:46:36.325Z,99626.53
2022-12-14T06:49:04.574Z,99635.72
2022-12-14T06:51:32.178Z,99619.03
2022-12-14T06:54:01.008Z,99621.53
2022-12-14T06:56:28.631Z,99620.66
2022-12-14T06:58:56.328Z,99630.63
2022-12-14T07:01:24.662Z,99620.53
2022-12-14T07:03:53.439Z,99621.50
2022-12-14T07:06:20.963Z,99629.91
2022-12-14T07:08:49.329Z,99627.31
2022-12-14T07:11:18.357Z,99624.81
2022-12-14T07:13:45.875Z,99617.34
2022-12-14T07:16:17.171Z,99619.06
2022-12-14T07:18:44.872Z,99614.03
2022-12-14T07:21:13.247Z,99626.34
2022-12-14T07:23:41.847Z,99609.69
2022-12-14T07:26:10.932Z,99623.22
2022-12-14T07:28:40.632Z,99624.09
2022-12-14T07:31:11.695Z,99624.91
2022-12-14T07:33:39.434Z,99620.75
2022-12-14T07:36:09.235Z,99617.38
2022-12-14T07:38:38.014Z,99618.19
2022-12-14T07:41:07.243Z,99636.78
2022-12-14T07:43:35.052Z,99648.59
2022-12-14T07:46:07.038Z,99645.19
2022-12-14T07:48:34.910Z,99659.97
2022-12-14T07:51:04.282Z,99660.91
2022-12-14T07:53:32.145Z,99654.94
2022-12-14T07:56:03.176Z,99646.69
2022-12-14T07:58:30.851Z,99637.41
2022-12-14T08:01:11.277Z,99647.34
2022-12-14T08:03:39.772Z,99648.28
2022-12-14T08:06:07.479Z,99655.69
2022-12-14T08:08:35.361Z,99651.56
2022-12-14T08:11:02.899Z,99641.41
2022-12-14T08:13:31.055Z,99646.78
2022-12-14T08:16:02.945Z,99657.50
2022-12-14T08:18:33.281Z,99642.50
2022-12-14T08:21:01.124Z,99644.91
2022-12-14T08:23:29.613Z,99650.00
2022-12-14T08:25:57.802Z,99659.22
2022-12-14T08:28:25.403Z,99657.56
2022-12-14T08:30:53.039Z,99656.66
2022-12-14T08:33:21.179Z,99648.22
2022-12-14T08:35:49.990Z,99658.38
2022-12-14T08:38:17.503Z,99658.31
2022-12-14T08:40:44.974Z,99657.22
2022-12-14T08:43:12.695Z,99666.50
2022-12-14T08:45:40.377Z,99654.66
2022-12-14T08:48:08.245Z,99652.19
2022-12-14T08:50:35.943Z,99651.22
2022-12-14T08:53:04.989Z,99649.41
2022-12-14T08:55:38.229Z,99661.94
2022-12-14T08:58:06.603Z,99663.56
2022-12-14T09:00:34.174Z,99662.47
2022-12-14T09:03:01.904Z,99662.38
2022-12-14T09:05:29.652Z,99644.72
2022-12-14T09:07:57.234Z,99663.22
2022-12-14T09:10:26.128Z,99650.47
2022-12-14T09:12:53.812Z,99663.69
2022-12-14T09:15:21.853Z,99653.59
2022-12-14T09:17:50.811Z,99660.41
2022-12-14T09:20:19.045Z,99668.59
2022-12-14T09:22:46.884Z,99664.81
2022-12-14T09:25:14.586Z,99664.84
2022-12-14T09:27:43.645Z,99656.22
2022-12-14T09:30:11.577Z,99656.84
2022-12-14T09:32:40.146Z,99668.41
2022-12-14T09:35:08.543Z,99667.38
2022-12-14T09:37:36.322Z,99654.88
2022-12-14T09:40:04.190Z,99654.94
2022-12-14T09:42:50.768Z,99671.63
2022-12-14T09:45:23.074Z,99652.78
2022-12-14T09:47:54.422Z,99659.56
2022-12-14T09:50:23.288Z,99641.72
2022-12-14T09:52:52.703Z,99661.88
2022-12-14T09:55:24.320Z,99656.97
2022-12-14T09:57:54.548Z,99658.03
2022-12-14T10:00:22.105Z,99648.09
2022-12-14T10:02:53.226Z,99644.50
2022-12-14T10:05:27.196Z,99651.31
2022-12-14T10:07:58.095Z,99639.16
2022-12-14T10:10:29.648Z,99635.06
2022-12-14T10:13:04.949Z,99631.25
2022-12-14T10:15:39.984Z,99634.28
2022-12-14T10:18:57.453Z,99642.00
2022-12-14T10:21:16.891Z,99640.28
2022-12-14T10:23:48.151Z,99649.16
2022-12-14T10:26:16.961Z,99641.22
2022-12-14T10:28:46.297Z,99642.44
2022-12-14T10:31:14.937Z,99648.16
2022-12-14T10:33:44.876Z,99650.47
2022-12-14T10:36:21.124Z,99646.91
2022-12-14T10:38:53.532Z,99642.44
2022-12-14T10:41:26.240Z,99638.66
2022-12-14T10:43:58.407Z,99625.00
2022-12-14T10:46:30.984Z,99630.53
2022-12-14T10:49:05.340Z,99628.22
2022-12-14T10:51:37.526Z,99621.16
2022-12-14T10:54:12.193Z,99617.44
2022-12-14T10:56:41.794Z,99611.34
2022-12-14T10:59:36.715Z,99619.84
2022-12-14T11:02:09.401Z,99605.69
2022-12-14T11:04:38.978Z,99604.41
2022-12-14T11:07:08.609Z,99605.38
2022-12-14T11:09:37.286Z,99595.34
2022-12-14T11:12:07.542Z,99597.19
2022-12-14T11:14:37.511Z,99603.56
2022-12-14T11:17:05.545Z,99601.28
2022-12-14T11:19:33.375Z,99604.53
2022-12-14T11:22:21.969Z,99591.66
2022-12-14T11:24:51.567Z,99584.34
2022-12-14T11:27:21.465Z,99599.59
2022-12-14T11:29:51.991Z,99578.72
2022-12-14T11:32:22.130Z,99583.22
2022-12-14T11:34:57.345Z,99572.25
2022-12-14T11:37:26.484Z,99570.78
2022-12-14T11:39:56.057Z,99577.91
2022-12-14T11:42:24.345Z,99578.38
2022-12-14T11:44:54.077Z,99571.81
2022-12-14T11:47:22.714Z,99567.00
2022-12-14T11:49:51.989Z,99560.81
2022-12-14T11:52:22.089Z,99563.28
2022-12-14T11:55:05.777Z,99560.38
2022-12-14T11:57:35.838Z,99560.13
2022-12-14T12:00:08.434Z,99573.66
2022-12-14T12:02:38.198Z,99573.25
2022-12-14T12:05:08.745Z,99570.88
2022-12-14T12:07:36.848Z,99571.47
2022-12-14T12:10:05.708Z,99574.56
2022-12-14T12:12:33.467Z,99581.25
2022-12-14T12:15:00.944Z,99576.41
2022-12-14T12:17:40.027Z,99569.47
2022-12-14T12:20:25.593Z,99578.25
2022-12-14T12:22:53.796Z,99581.09
2022-12-14T12:25:27.451Z,99590.59
2022-12-14T12:28:01.505Z,99581.00
2022-12-14T12:30:34.479Z,99581.53
2022-12-14T12:33:22.493Z,99572.97
2022-12-14T12:35:50.663Z,99584.34
2022-12-14T12:38:19.954Z,99581.69
2022-12-14T12:40:51.936Z,99578.19
2022-12-14T12:43:20.433Z,99576.94
2022-12-14T12:45:48.984Z,99577.78
2022-12-14T12:48:18.148Z,99589.84
2022-12-14T12:50:50.032Z,99582.16
2022-12-14T12:53:21.353Z,99588.31
2022-12-14T12:55:51.509Z,99589.09
2022-12-14T12:58:21.201Z,99579.56
2022-12-14T13:00:55.422Z,99576.44
2022-12-14T13:03:25.821Z,99580.91
2022-12-14T13:05:53.738Z,99581.91
2022-12-14T13:08:24.431Z,99587.69
2022-12-14T13:13:39.427Z,99575.03
2022-12-14T13:16:09.397Z,99574.38
2022-12-14T13:18:59.518Z,99575.88
2022-12-14T13:21:31.864Z,99580.09
2022-12-14T13:23:59.918Z,99578.34
2022-12-14T13:26:57.678Z,99575.88
2022-12-14T13:29:39.818Z,99575.50
2022-12-14T13:32:14.894Z,99574.66
2022-12-14T13:34:53.368Z,99581.91
2022-12-14T13:37:38.577Z,99576.25
2022-12-14T13:40:23.725Z,99583.72
2022-12-14T13:42:54.576Z,99582.13
2022-12-14T13:45:22.449Z,99579.78
2022-12-14T13:47:52.144Z,99587.31
2022-12-14T13:50:42.412Z,99586.47
2022-12-14T13:53:14.321Z,99589.31
2022-12-14T13:55:48.272Z,99587.53
2022-12-14T13:58:19.591Z,99582.97
2022-12-14T14:01:07.377Z,99578.94
2022-12-14T14:03:48.051Z,99579.75
2022-12-14T14:06:20.868Z,99584.56
2022-12-14T14:08:49.669Z,99580.03
2022-12-14T14:11:37.259Z,99581.50
2022-12-14T14:14:08.880Z,99578.00
2022-12-14T14:16:39.276Z,99576.97
2022-12-14T14:19:19.318Z,99574.66
2022-12-14T14:24:56.347Z,99572.06
2022-12-14T14:27:25.045Z,99567.41
2022-12-14T14:29:53.668Z,99567.38
2022-12-14T14:32:42.753Z,99572.66
2022-12-14T14:35:23.550Z,99569.81
2022-12-14T14:38:00.153Z,99565.44
2022-12-14T14:41:06.741Z,99575.81
2022-12-14T14:43:27.396Z,99574.81
2022-12-14T14:45:57.816Z,99578.13
2022-12-14T14:48:28.818Z,99574.97
2022-12-14T14:51:17.406Z,99576.88
2022-12-14T14:53:46.256Z,99575.41
2022-12-14T14:56:40.130Z,99574.53
2022-12-14T14:59:28.826Z,99584.66
2022-12-14T15:01:58.021Z,99587.84
2022-12-14T15:04:29.673Z,99585.53
2022-12-14T15:06:59.282Z,99587.78
2022-12-14T15:09:31.732Z,99587.22
2022-12-14T15:12:04.063Z,99581.38
2022-12-14T15:14:35.437Z,99582.56
2022-12-14T15:17:13.704Z,99587.50
2022-12-14T15:19:47.801Z,99593.59
2022-12-14T15:22:18.549Z,99594.34
2022-12-14T15:24:49.834Z,99589.50
2022-12-14T15:27:24.047Z,99594.66
2022-12-14T15:29:52.310Z,99603.41
2022-12-14T15:32:22.839Z,99597.13
2022-12-14T15:34:54.704Z,99603.16
2022-12-14T15:37:32.784Z,99603.41
2022-12-14T15:40:05.038Z,99607.06
2022-12-14T15:42:32.781Z,99607.22
2022-12-14T15:45:08.070Z,99612.22
2022-12-14T15:47:35.771Z,99605.38
2022-12-14T15:50:24.322Z,99601.38
2022-12-14T15:52:53.144Z,99598.81
2022-12-14T15:55:40.189Z,99612.22
2022-12-14T15:58:10.429Z,99612.53
2022-12-14T16:00:42.537Z,99603.81
2022-12-14T16:03:19.708Z,99604.69
2022-12-14T16:05:47.491Z,99607.44
2022-12-14T16:08:15.653Z,99603.34
2022-12-14T16:10:45.409Z,99608.75
2022-12-14T16:13:17.758Z,99616.13
2022-12-14T16:15:46.281Z,99612.72
2022-12-14T16:18:18.543Z,99619.81
2022-12-14T16:20:47.726Z,99609.28
2022-12-14T16:23:29.358Z,99615.91
2022-12-14T16:26:00.248Z,99622.25
2022-12-14T16:28:31.020Z,99619.66
2022-12-14T16:31:02.582Z,99622.19
2022-12-14T16:33:32.107Z,99616.38
2022-12-14T16:36:07.260Z,99607.97
2022-12-14T16:38:40.524Z,99607.94
2022-12-14T16:41:09.914Z,99602.06
2022-12-14T16:43:39.356Z,99612.31
2022-12-14T16:46:16.267Z,99607.28
2022-12-14T16:48:50.347Z,99615.72
2022-12-14T16:52:05.522Z,99614.81
2022-12-14T16:54:27.616Z,99607.28
2022-12-14T16:57:03.849Z,99610.88
2022-12-14T16:59:38.716Z,99614.34
2022-12-14T17:02:08.506Z,99617.69
2022-12-14T17:04:39.300Z,99613.09
2022-12-14T17:07:07.000Z,99631.69
2022-12-14T17:09:35.658Z,99628.75
2022-12-14T17:12:14.305Z,99627.28
2022-12-14T17:14:49.287Z,99637.72
2022-12-14T17:17:19.543Z,99639.47
2022-12-14T17:19:47.302Z,99630.44
2022-12-14T17:22:18.996Z,99641.50
2022-12-14T17:24:47.763Z,99623.91
2022-12-14T17:27:17.471Z,99631.56
2022-12-14T17:29:45.821Z,99631.44
2022-12-14T17:32:15.809Z,99632.41
2022-12-14T17:34:45.489Z,99625.84
2022-12-14T17:37:16.234Z,99625.25
2022-12-14T17:39:43.902Z,99623.69
2022-12-14T17:42:12.551Z,99630.72
2022-12-14T17:44:42.146Z,99631.56
2022-12-14T17:47:13.030Z,99656.09
2022-12-14T17:49:42.191Z,99654.13
2022-12-14T17:52:17.428Z,99655.84
2022-12-14T17:54:45.629Z,99660.81
2022-12-14T17:57:16.485Z,99643.91
2022-12-14T17:59:47.680Z,99633.97
2022-12-14T18:02:27.010Z,99642.69
2022-12-14T18:04:54.859Z,99650.13
2022-12-14T18:07:22.589Z,99657.00
2022-12-14T18:09:52.925Z,99652.59
2022-12-14T18:12:23.603Z,99673.91
2022-12-14T18:14:53.344Z,99676.09
2022-12-14T18:17:21.047Z,99674.00
2022-12-14T18:19:49.620Z,99678.25
2022-12-14T18:22:17.633Z,99681.59
2022-12-14T18:24:45.798Z,99680.69
2022-12-14T18:27:15.223Z,99684.94
2022-12-14T18:29:42.929Z,99691.94
2022-12-14T18:32:14.252Z,99688.59
2022-12-14T18:34:42.061Z,99685.94
2022-12-14T18:37:09.736Z,99684.25
2022-12-14T18:39:37.437Z,99687.59
2022-12-14T18:42:05.235Z,99695.22
2022-12-14T18:44:32.893Z,99689.13
2022-12-14T18:47:20.355Z,99682.34
2022-12-14T18:49:49.576Z,99676.63
2022-12-14T18:52:17.305Z,99681.00
2022-12-14T18:54:45.010Z,99675.19
2022-12-14T18:57:12.689Z,99678.50
2022-12-14T18:59:42.594Z,99682.66
2022-12-14T19:02:15.307Z,99688.75
2022-12-14T19:04:43.051Z,99687.25
2022-12-14T19:07:12.097Z,99683.78
2022-12-14T19:09:39.825Z,99670.63
2022-12-14T19:12:08.368Z,99676.03
2022-12-14T19:14:36.053Z,99679.16
2022-12-14T19:17:03.735Z,99674.94
2022-12-14T19:19:38.054Z,99693.47
2022-12-14T19:22:09.016Z,99696.63
2022-12-14T19:24:38.048Z,99699.84
2022-12-14T19:27:06.087Z,99698.06
2022-12-14T19:29:35.472Z,99698.88
2022-12-14T19:32:05.673Z,99703.09
2022-12-14T19:34:33.704Z,99705.56
2022-12-14T19:37:01.466Z,99704.69
2022-12-14T19:39:29.194Z,99695.41
2022-12-14T19:41:58.305Z,99709.84
2022-12-14T19:44:25.953Z,99710.66
2022-12-14T19:46:53.658Z,99717.44
2022-12-14T19:49:22.299Z,99715.81
2022-12-14T19:51:50.014Z,99712.38
2022-12-14T19:54:17.807Z,99719.28
2022-12-14T19:56:45.543Z,99714.94
2022-12-14T19:59:18.248Z,99716.47
2022-12-14T20:01:48.145Z,99719.09
2022-12-14T20:04:16.205Z,99716.59
2022-12-14T20:06:43.927Z,99715.81
2022-12-14T20:09:14.833Z,99714.16
2022-12-14T20:11:42.558Z,99721.72
2022-12-14T20:14:10.543Z,99710.75
2022-12-14T20:16:40.152Z,99722.53
2022-12-14T20:19:08.103Z,99730.31
2022-12-14T20:21:35.904Z,99725.06
2022-12-14T20:24:03.697Z,99725.19
2022-12-14T20:26:31.413Z,99737.16
2022-12-14T20:29:01.445Z,99733.09
2022-12-14T20:31:29.270Z,99737.38
2022-12-14T20:34:00.439Z,99726.91
2022-12-14T20:36:28.718Z,99735.47
2022-12-14T20:38:57.788Z,99740.50
2022-12-14T20:41:26.297Z,99754.09
2022-12-14T20:43:53.992Z,99757.50
2022-12-14T20:46:26.473Z,99757.53
2022-12-14T20:48:54.476Z,99771.56
2022-12-14T20:51:24.052Z,99765.97
2022-12-14T20:53:51.776Z,99782.59
2022-12-14T20:56:20.294Z,99777.47
2022-12-14T20:58:48.821Z,99779.16
2022-12-14T21:01:17.505Z,99785.38
2022-12-14T21:03:46.683Z,99777.06
2022-12-14T21:06:15.448Z,99776.31
2022-12-14T21:09:05.001Z,99781.16
2022-12-14T21:11:51.474Z,99788.47
2022-12-14T21:14:20.530Z,99788.41
2022-12-14T21:16:48.453Z,99790.84
2022-12-14T21:19:18.758Z,99778.56
2022-12-14T21:21:53.059Z,99788.66
2022-12-14T21:25:01.202Z,99790.47
2022-12-14T21:27:11.909Z,99797.94
2022-12-14T21:29:39.416Z,99804.56
2022-12-14T21:32:07.297Z,99782.84
2022-12-14T21:34:35.119Z,99793.66
2022-12-14T21:37:02.757Z,99785.91
2022-12-14T21:39:31.857Z,99778.97
2022-12-14T21:42:10.393Z,99785.66
2022-12-14T21:44:38.479Z,99780.97
2022-12-14T21:47:06.798Z,99787.44
2022-12-14T21:49:36.905Z,99775.59
2022-12-14T21:52:07.519Z,99782.06
2022-12-14T21:54:37.213Z,99778.88
2022-12-14T21:57:21.932Z,99781.25
2022-12-14T21:59:49.411Z,99786.13
2022-12-14T22:02:17.820Z,99797.56
2022-12-14T22:04:46.806Z,99783.63
2022-12-14T22:07:15.648Z,99786.78
2022-12-14T22:09:45.264Z,99787.00
2022-12-14T22:12:18.697Z,99785.91
2022-12-14T22:14:46.167Z,99776.75
2022-12-14T22:17:13.993Z,99779.59
2022-12-14T22:19:41.517Z,99774.44
2022-12-14T22:22:13.910Z,99777.09
2022-12-14T22:24:41.889Z,99797.78
2022-12-14T22:27:11.517Z,99779.28
2022-12-14T22:29:39.171Z,99786.97
2022-12-14T22:32:07.153Z,99781.06
2022-12-14T22:34:34.835Z,99789.22
2022-12-14T22:37:02.401Z,99789.50
2022-12-14T22:39:30.103Z,99784.69
2022-12-14T22:41:57.777Z,99784.97
2022-12-14T22:44:26.854Z,99790.84
2022-12-14T22:46:54.556Z,99797.63
2022-12-14T22:49:22.249Z,99826.34
2022-12-14T22:51:50.400Z,99817.13
2022-12-14T22:54:18.476Z,99823.41
2022-12-14T22:56:47.301Z,99824.91
2022-12-14T22:59:15.588Z,99824.63
2022-12-14T23:01:49.679Z,99822.16
2022-12-14T23:04:18.193Z,99825.19
2022-12-14T23:06:46.083Z,99830.16
2022-12-14T23:09:31.187Z,99827.66
2022-12-14T23:12:21.533Z,99819.56
2022-12-14T23:15:07.113Z,99826.69
2022-12-14T23:17:53.501Z,99825.19
2022-12-14T23:20:38.352Z,99825.72
2022-12-14T23:23:24.156Z,99831.09
2022-12-14T23:26:09.514Z,99825.13
2022-12-14T23:28:54.864Z,99828.84
2022-12-14T23:31:40.237Z,99826.34
2022-12-14T23:34:26.388Z,99827.91
2022-12-14T23:37:15.104Z,99831.50
2022-12-14T23:40:04.572Z,99834.22
2022-12-14T23:42:49.941Z,99844.97
2022-12-14T23:45:35.362Z,99833.44
2022-12-14T23:48:20.901Z,99851.25
2022-12-14T23:51:07.054Z,99839.00
2022-12-14T23:53:51.883Z,99836.03
2022-12-14T23:56:36.803Z,99838.09
2022-12-14T23:59:26.375Z,99839.78
